Time;durP1;ratioP1;P1;durP2;ratioP2;P2;SDS_P1;SDS_P2;PMS_P1;PMS_P2;Temp;Humidity;BMP_temperature;BMP_pressure;BME280_temperature;BME280_humidity;BME280_pressure;Samples;Min_cycle;Max_cycle;Signal;HPM_P1;HPM_P2
2023/03/01 00:00:18;;;;;;;;;;;19.10;38.10;;;;;;5099540;28;19924;-62
2023/03/01 00:02:44;;;;;;;;;;;19.10;38.10;;;;;;5115887;28;20030;-63
2023/03/01 00:05:13;;;;;;;;;;;19.10;38.20;;;;;;5095471;28;20002;-62
2023/03/01 00:07:39;;;;;;;;;;;19.10;38.20;;;;;;5093587;28;19924;-62
2023/03/01 00:10:06;;;;;;;;;;;19.10;38.20;;;;;;5094795;28;19919;-62
2023/03/01 00:12:33;;;;;;;;;;;19.10;38.80;;;;;;5095847;28;19920;-64
2023/03/01 00:15:00;;;;;;;;;;;19.10;38.20;;;;;;5101697;28;19920;-63
2023/03/01 00:17:27;;;;;;;;;;;19.10;38.20;;;;;;5112632;28;19938;-63
2023/03/01 00:19:54;;;;;;;;;;;19.10;38.20;;;;;;5098676;28;20354;-62
2023/03/01 00:22:23;;;;;;;;;;;19.10;38.80;;;;;;5094635;28;19930;-63
2023/03/01 00:24:50;;;;;;;;;;;19.10;38.20;;;;;;5110518;28;19920;-63
2023/03/01 00:27:16;;;;;;;;;;;19.10;38.30;;;;;;5094823;28;19920;-63
2023/03/01 00:29:48;;;;;;;;;;;19.10;38.30;;;;;;5093825;28;19919;-62
2023/03/01 00:32:15;;;;;;;;;;;19.10;38.30;;;;;;5109522;28;20015;-63
2023/03/01 00:34:42;;;;;;;;;;;19.10;38.30;;;;;;5093659;28;19924;-62
2023/03/01 00:37:11;;;;;;;;;;;19.10;38.30;;;;;;5094766;28;19920;-62
2023/03/01 00:39:41;;;;;;;;;;;19.10;38.30;;;;;;5094837;28;19993;-63
2023/03/01 00:42:08;;;;;;;;;;;19.10;38.30;;;;;;5098911;28;19951;-62
2023/03/01 00:44:38;;;;;;;;;;;19.10;38.30;;;;;;5093507;28;19926;-62
2023/03/01 00:47:04;;;;;;;;;;;19.10;38.30;;;;;;5085193;28;19919;-62
2023/03/01 00:49:31;;;;;;;;;;;19.10;38.30;;;;;;5108028;27;19920;-63
2023/03/01 00:51:58;;;;;;;;;;;19.10;38.30;;;;;;5094521;28;19935;-63
2023/03/01 00:54:25;;;;;;;;;;;19.10;38.40;;;;;;5094221;28;19923;-62
2023/03/01 00:56:53;;;;;;;;;;;19.10;38.30;;;;;;5098112;28;19919;-62
2023/03/01 00:59:20;;;;;;;;;;;19.10;38.40;;;;;;5088689;28;19980;-61
2023/03/01 01:01:46;;;;;;;;;;;19.10;38.40;;;;;;5090214;28;19923;-62
2023/03/01 01:04:13;;;;;;;;;;;19.10;38.40;;;;;;5094580;28;19924;-62
2023/03/01 01:06:44;;;;;;;;;;;19.10;38.40;;;;;;5111972;28;19923;-62
2023/03/01 01:09:16;;;;;;;;;;;19.10;38.40;;;;;;5093518;28;19972;-62
2023/03/01 01:11:43;;;;;;;;;;;19.10;38.40;;;;;;5089978;28;19919;-62
2023/03/01 01:14:12;;;;;;;;;;;19.10;38.40;;;;;;5089070;28;19920;-62
2023/03/01 01:16:38;;;;;;;;;;;19.10;38.40;;;;;;5088551;28;19932;-62
2023/03/01 01:19:05;;;;;;;;;;;19.10;38.40;;;;;;5111840;28;19926;-62
2023/03/01 01:21:32;;;;;;;;;;;19.10;38.50;;;;;;5093575;28;20318;-62
2023/03/01 01:23:58;;;;;;;;;;;19.10;38.50;;;;;;5092923;28;19955;-63
2023/03/01 01:26:26;;;;;;;;;;;19.10;38.40;;;;;;5094048;28;19920;-62
2023/03/01 01:28:52;;;;;;;;;;;19.10;38.50;;;;;;5093538;28;20370;-63
2023/03/01 01:31:23;;;;;;;;;;;19.10;38.50;;;;;;5088700;28;20314;-63
2023/03/01 01:33:50;;;;;;;;;;;19.10;38.50;;;;;;5095210;28;19921;-62
2023/03/01 01:36:16;;;;;;;;;;;19.10;38.50;;;;;;5107500;28;19931;-62
2023/03/01 01:38:43;;;;;;;;;;;19.10;38.50;;;;;;5110984;28;19923;-63
2023/03/01 01:41:11;;;;;;;;;;;19.10;38.50;;;;;;5079280;28;20022;-63
2023/03/01 01:43:38;;;;;;;;;;;19.10;38.50;;;;;;5111198;28;19923;-62
2023/03/01 01:46:05;;;;;;;;;;;19.10;38.50;;;;;;5090507;28;19963;-62
2023/03/01 01:48:40;;;;;;;;;;;19.10;38.50;;;;;;5095658;28;19964;-62
2023/03/01 01:51:07;;;;;;;;;;;19.10;38.50;;;;;;5110210;28;19920;-61
2023/03/01 01:53:34;;;;;;;;;;;19.10;38.50;;;;;;5091532;28;19923;-63
2023/03/01 01:56:01;;;;;;;;;;;19.10;38.50;;;;;;5092751;28;19920;-62
2023/03/01 01:58:28;;;;;;;;;;;19.10;38.50;;;;;;5110433;28;19980;-63
2023/03/01 02:00:55;;;;;;;;;;;19.10;38.60;;;;;;5111558;28;19920;-63
2023/03/01 02:03:23;;;;;;;;;;;19.10;38.60;;;;;;5089553;28;19919;-63
2023/03/01 02:05:53;;;;;;;;;;;19.10;38.50;;;;;;5100036;28;19931;-62
2023/03/01 02:08:20;;;;;;;;;;;19.10;38.60;;;;;;5096043;28;19919;-63
2023/03/01 02:10:47;;;;;;;;;;;19.10;38.50;;;;;;5110131;28;19924;-63
2023/03/01 02:13:14;;;;;;;;;;;19.20;38.70;;;;;;5092970;28;20022;-62
2023/03/01 02:15:41;;;;;;;;;;;19.10;38.60;;;;;;5091642;28;19920;-62
2023/03/01 02:18:08;;;;;;;;;;;19.10;38.60;;;;;;5091057;28;19969;-63
2023/03/01 02:20:36;;;;;;;;;;;19.10;38.60;;;;;;5095531;28;19924;-63
2023/03/01 02:23:05;;;;;;;;;;;19.10;38.60;;;;;;5091828;28;19966;-63
2023/03/01 02:25:35;;;;;;;;;;;19.10;38.60;;;;;;5092372;28;20433;-63
2023/03/01 02:28:04;;;;;;;;;;;19.10;38.60;;;;;;5084914;28;19928;-62
2023/03/01 02:30:32;;;;;;;;;;;19.10;38.60;;;;;;5091879;28;19973;-63
2023/03/01 02:33:02;;;;;;;;;;;19.10;38.60;;;;;;5090871;28;19931;-62
2023/03/01 02:35:29;;;;;;;;;;;19.10;38.60;;;;;;5082952;28;20001;-63
2023/03/01 02:37:56;;;;;;;;;;;19.10;38.60;;;;;;5090588;28;19928;-63
2023/03/01 02:40:23;;;;;;;;;;;19.10;38.70;;;;;;5092562;28;19926;-63
2023/03/01 02:42:51;;;;;;;;;;;19.10;38.70;;;;;;5110313;28;19965;-63
2023/03/01 02:45:17;;;;;;;;;;;19.10;38.70;;;;;;5093192;28;19923;-63
2023/03/01 02:47:45;;;;;;;;;;;19.10;38.70;;;;;;5088759;28;19969;-63
2023/03/01 02:50:15;;;;;;;;;;;19.10;38.90;;;;;;5087716;28;19977;-63
2023/03/01 02:52:44;;;;;;;;;;;19.10;38.70;;;;;;5100113;28;19928;-63
2023/03/01 02:55:11;;;;;;;;;;;19.10;38.70;;;;;;5095570;28;20032;-62
2023/03/01 02:57:38;;;;;;;;;;;19.10;38.70;;;;;;5110497;28;19930;-62
2023/03/01 03:00:07;;;;;;;;;;;19.10;38.70;;;;;;5097079;28;19920;-63
2023/03/01 03:02:37;;;;;;;;;;;19.10;38.80;;;;;;5090447;28;20026;-63
2023/03/01 03:05:08;;;;;;;;;;;19.10;38.70;;;;;;5095281;28;20299;-63
2023/03/01 03:07:35;;;;;;;;;;;19.10;38.70;;;;;;5095086;28;20030;-63
2023/03/01 03:10:04;;;;;;;;;;;19.10;38.70;;;;;;5107221;28;19973;-63
2023/03/01 03:12:30;;;;;;;;;;;19.10;38.70;;;;;;5108514;28;19924;-63
2023/03/01 03:14:57;;;;;;;;;;;19.10;38.80;;;;;;5095718;28;19923;-63
2023/03/01 03:17:24;;;;;;;;;;;19.10;38.70;;;;;;5112286;28;19952;-63
2023/03/01 03:19:51;;;;;;;;;;;19.10;38.70;;;;;;5094633;28;19920;-63
2023/03/01 03:22:19;;;;;;;;;;;19.10;38.80;;;;;;5095895;28;19920;-63
2023/03/01 03:24:45;;;;;;;;;;;19.10;38.80;;;;;;5113826;28;19923;-64
2023/03/01 03:27:12;;;;;;;;;;;19.10;38.80;;;;;;5095543;28;19984;-62
2023/03/01 03:29:39;;;;;;;;;;;19.10;38.80;;;;;;5095692;28;19927;-63
2023/03/01 03:32:06;;;;;;;;;;;19.10;38.80;;;;;;5094036;28;19920;-63
2023/03/01 03:34:32;;;;;;;;;;;19.10;38.80;;;;;;5093890;28;19927;-63
2023/03/01 03:36:59;;;;;;;;;;;19.10;38.80;;;;;;5094301;28;19928;-62
2023/03/01 03:39:27;;;;;;;;;;;19.10;38.80;;;;;;5083463;28;19927;-63
2023/03/01 03:41:54;;;;;;;;;;;19.10;38.80;;;;;;5112541;28;19955;-63
2023/03/01 03:44:21;;;;;;;;;;;19.10;38.80;;;;;;5112667;28;20020;-63
2023/03/01 03:46:47;;;;;;;;;;;19.10;38.80;;;;;;5092540;28;19924;-63
2023/03/01 03:49:14;;;;;;;;;;;19.10;38.80;;;;;;5084550;28;19919;-64
2023/03/01 03:51:41;;;;;;;;;;;19.10;38.90;;;;;;5090717;28;19919;-63
2023/03/01 03:54:08;;;;;;;;;;;19.10;38.80;;;;;;5131660;27;20163;-63
2023/03/01 03:56:36;;;;;;;;;;;19.10;38.90;;;;;;5095124;28;19919;-62
2023/03/01 03:59:02;;;;;;;;;;;19.10;38.90;;;;;;5095355;28;19969;-62
2023/03/01 04:01:30;;;;;;;;;;;19.10;38.90;;;;;;5112762;28;19920;-62
2023/03/01 04:04:03;;;;;;;;;;;19.10;38.80;;;;;;5093972;28;19967;-62
2023/03/01 04:06:31;;;;;;;;;;;19.10;38.90;;;;;;5094614;28;19924;-62
2023/03/01 04:09:02;;;;;;;;;;;19.10;38.90;;;;;;5094600;28;19970;-62
2023/03/01 04:11:28;;;;;;;;;;;19.10;38.90;;;;;;5112529;28;19923;-62
2023/03/01 04:13:57;;;;;;;;;;;19.10;38.90;;;;;;5097645;28;19920;-62
2023/03/01 04:16:24;;;;;;;;;;;19.10;38.90;;;;;;5094724;28;20308;-63
2023/03/01 04:18:52;;;;;;;;;;;19.10;38.90;;;;;;5098299;28;19924;-62
2023/03/01 04:21:20;;;;;;;;;;;19.10;39.00;;;;;;5113396;28;19930;-63
2023/03/01 04:23:46;;;;;;;;;;;19.10;38.90;;;;;;5094300;28;19920;-63
2023/03/01 04:26:13;;;;;;;;;;;19.10;38.90;;;;;;5113383;28;19940;-63
2023/03/01 04:28:42;;;;;;;;;;;19.10;39.00;;;;;;5113244;28;19920;-63
2023/03/01 04:31:13;;;;;;;;;;;19.10;39.00;;;;;;5094067;28;19924;-62
2023/03/01 04:33:41;;;;;;;;;;;19.10;39.00;;;;;;5126294;27;19962;-62
2023/03/01 04:36:08;;;;;;;;;;;19.10;39.00;;;;;;5129491;27;19965;-63
2023/03/01 04:38:36;;;;;;;;;;;19.10;39.00;;;;;;5093375;28;20315;-63
2023/03/01 04:41:04;;;;;;;;;;;19.10;39.00;;;;;;5097366;28;19942;-63
2023/03/01 04:43:30;;;;;;;;;;;19.10;39.00;;;;;;5093703;28;19945;-63
2023/03/01 04:46:02;;;;;;;;;;;19.10;39.00;;;;;;5113524;28;19920;-63
2023/03/01 04:48:30;;;;;;;;;;;19.10;39.00;;;;;;5091211;28;19970;-63
2023/03/01 04:50:57;;;;;;;;;;;19.10;39.00;;;;;;5090991;28;19920;-63
2023/03/01 04:53:24;;;;;;;;;;;19.10;39.00;;;;;;5094484;28;19969;-63
2023/03/01 04:55:51;;;;;;;;;;;19.10;39.10;;;;;;5095450;28;19923;-63
2023/03/01 04:58:18;;;;;;;;;;;19.10;39.10;;;;;;5096857;28;19935;-63
2023/03/01 05:00:44;;;;;;;;;;;19.10;39.10;;;;;;5092670;28;19932;-63
2023/03/01 05:03:11;;;;;;;;;;;19.10;39.10;;;;;;5108945;28;19936;-63
2023/03/01 05:05:39;;;;;;;;;;;19.10;39.10;;;;;;5094112;28;20311;-63
2023/03/01 05:08:06;;;;;;;;;;;19.10;39.10;;;;;;5093251;28;20390;-63
2023/03/01 05:10:35;;;;;;;;;;;19.10;39.10;;;;;;5110944;28;19919;-63
2023/03/01 05:13:02;;;;;;;;;;;19.10;39.10;;;;;;5091163;28;20400;-63
2023/03/01 05:15:29;;;;;;;;;;;19.10;39.10;;;;;;5096096;28;19920;-63
2023/03/01 05:17:58;;;;;;;;;;;19.10;39.10;;;;;;5094342;28;19934;-63
2023/03/01 05:20:25;;;;;;;;;;;19.10;39.10;;;;;;5091827;28;19939;-63
2023/03/01 05:22:53;;;;;;;;;;;19.10;39.10;;;;;;5092697;28;19924;-61
2023/03/01 05:25:21;;;;;;;;;;;19.10;39.20;;;;;;5092377;28;19924;-62
2023/03/01 05:27:48;;;;;;;;;;;19.10;39.20;;;;;;5089060;28;20011;-62
2023/03/01 05:30:15;;;;;;;;;;;19.10;39.20;;;;;;5086947;28;19955;-63
2023/03/01 05:32:43;;;;;;;;;;;19.10;39.20;;;;;;5090826;28;20421;-62
2023/03/01 05:35:12;;;;;;;;;;;19.10;39.20;;;;;;5091760;28;19928;-63
2023/03/01 05:37:40;;;;;;;;;;;19.10;39.20;;;;;;5093158;28;19963;-62
2023/03/01 05:40:15;;;;;;;;;;;19.10;39.20;;;;;;5110443;28;19919;-62
2023/03/01 05:42:43;;;;;;;;;;;19.10;39.20;;;;;;5110347;28;19924;-62
2023/03/01 05:45:10;;;;;;;;;;;19.10;39.20;;;;;;5093209;28;19923;-63
2023/03/01 05:47:37;;;;;;;;;;;19.10;39.20;;;;;;5108929;28;19931;-62
2023/03/01 05:50:04;;;;;;;;;;;19.10;39.20;;;;;;5090526;28;19973;-62
2023/03/01 05:52:30;;;;;;;;;;;19.10;39.20;;;;;;5089451;28;19992;-62
2023/03/01 05:54:57;;;;;;;;;;;19.10;39.20;;;;;;5093945;28;19975;-63
2023/03/01 05:57:25;;;;;;;;;;;19.10;39.30;;;;;;5106583;28;20268;-62
2023/03/01 05:59:52;;;;;;;;;;;19.10;39.20;;;;;;5083567;28;19920;-62
2023/03/01 06:02:19;;;;;;;;;;;19.10;39.20;;;;;;5087687;28;20370;-62
2023/03/01 06:04:46;;;;;;;;;;;19.10;39.20;;;;;;5088957;28;19927;-62
2023/03/01 06:07:13;;;;;;;;;;;19.10;39.30;;;;;;5109831;28;19923;-62
2023/03/01 06:09:39;;;;;;;;;;;19.10;39.30;;;;;;5092315;28;19919;-62
2023/03/01 06:12:06;;;;;;;;;;;19.10;39.30;;;;;;5092663;28;19920;-62
2023/03/01 06:14:35;;;;;;;;;;;19.10;39.30;;;;;;5091459;28;19919;-63
2023/03/01 06:17:02;;;;;;;;;;;19.10;39.30;;;;;;5092070;28;19953;-63
2023/03/01 06:19:30;;;;;;;;;;;19.10;39.30;;;;;;5090495;28;19927;-62
2023/03/01 06:21:56;;;;;;;;;;;19.10;39.30;;;;;;5103624;28;19920;-62
2023/03/01 06:24:23;;;;;;;;;;;19.10;39.30;;;;;;5080978;28;19977;-62
2023/03/01 06:26:50;;;;;;;;;;;19.10;39.30;;;;;;5097704;28;19924;-62
2023/03/01 06:29:16;;;;;;;;;;;19.10;39.30;;;;;;5088971;28;19920;-62
2023/03/01 06:31:45;;;;;;;;;;;19.10;39.30;;;;;;5087193;28;19977;-62
2023/03/01 06:34:13;;;;;;;;;;;19.10;39.30;;;;;;5090045;28;20281;-62
2023/03/01 06:36:40;;;;;;;;;;;19.10;39.30;;;;;;5082046;28;19930;-62
2023/03/01 06:39:07;;;;;;;;;;;19.10;39.30;;;;;;5085983;28;19920;-63
2023/03/01 06:41:35;;;;;;;;;;;19.10;39.30;;;;;;5088227;28;20366;-62
2023/03/01 06:44:02;;;;;;;;;;;19.10;39.30;;;;;;5104358;28;19997;-63
2023/03/01 06:46:29;;;;;;;;;;;19.10;39.30;;;;;;5115588;28;20019;-62
2023/03/01 06:48:57;;;;;;;;;;;19.10;39.30;;;;;;5106440;28;19930;-63
2023/03/01 06:51:25;;;;;;;;;;;19.10;39.30;;;;;;5105920;28;20311;-64
2023/03/01 06:53:51;;;;;;;;;;;19.10;39.30;;;;;;5090414;28;19937;-63
2023/03/01 06:56:18;;;;;;;;;;;19.10;39.30;;;;;;5088527;28;19919;-63
2023/03/01 06:58:45;;;;;;;;;;;19.10;39.40;;;;;;5090102;28;19924;-62
2023/03/01 07:01:11;;;;;;;;;;;19.10;39.30;;;;;;5088563;28;19932;-63
2023/03/01 07:03:38;;;;;;;;;;;19.10;39.30;;;;;;5122293;28;19993;-63
2023/03/01 07:06:07;;;;;;;;;;;19.10;39.40;;;;;;5088217;28;19935;-63
2023/03/01 07:08:34;;;;;;;;;;;19.10;39.30;;;;;;5088997;28;19919;-63
2023/03/01 07:11:24;;;;;;;;;;;19.10;39.40;;;;;;5087400;28;19930;-63
2023/03/01 07:13:51;;;;;;;;;;;19.10;39.40;;;;;;5084331;28;19938;-63
2023/03/01 07:16:20;;;;;;;;;;;19.10;39.40;;;;;;5088437;28;20362;-64
2023/03/01 07:18:47;;;;;;;;;;;19.10;39.40;;;;;;5084233;28;19944;-62
2023/03/01 07:21:24;;;;;;;;;;;19.10;39.40;;;;;;5089660;28;19928;-63
2023/03/01 07:23:50;;;;;;;;;;;19.10;39.40;;;;;;5087968;28;19934;-63
2023/03/01 07:26:17;;;;;;;;;;;19.10;39.40;;;;;;5089828;28;19969;-63
2023/03/01 07:28:44;;;;;;;;;;;19.10;39.40;;;;;;5088995;28;19927;-63
2023/03/01 07:31:11;;;;;;;;;;;19.10;39.40;;;;;;5108691;28;19965;-63
2023/03/01 07:33:37;;;;;;;;;;;19.10;39.40;;;;;;5089296;28;19920;-63
2023/03/01 07:36:04;;;;;;;;;;;19.10;39.40;;;;;;5088453;28;19927;-63
2023/03/01 07:38:32;;;;;;;;;;;19.10;39.40;;;;;;5087200;28;19945;-63
2023/03/01 07:41:02;;;;;;;;;;;19.10;39.40;;;;;;5088393;28;20014;-63
2023/03/01 07:43:31;;;;;;;;;;;19.10;39.40;;;;;;5103923;28;19924;-61
2023/03/01 07:45:59;;;;;;;;;;;19.10;39.40;;;;;;5091107;28;19979;-63
2023/03/01 07:48:25;;;;;;;;;;;19.10;39.40;;;;;;5103485;28;19932;-63
2023/03/01 07:50:52;;;;;;;;;;;19.10;39.50;;;;;;5101882;28;20341;-63
2023/03/01 07:53:19;;;;;;;;;;;19.10;39.50;;;;;;5088433;28;19981;-63
2023/03/01 07:55:48;;;;;;;;;;;19.10;39.50;;;;;;5091226;28;19924;-63
2023/03/01 07:58:15;;;;;;;;;;;19.10;39.50;;;;;;5088064;28;19920;-63
2023/03/01 08:00:41;;;;;;;;;;;19.10;39.50;;;;;;5086195;28;19924;-63
2023/03/01 08:03:08;;;;;;;;;;;19.10;39.50;;;;;;5089707;28;19926;-63
2023/03/01 08:05:35;;;;;;;;;;;19.10;39.50;;;;;;5111074;28;19924;-63
2023/03/01 08:08:02;;;;;;;;;;;19.10;39.50;;;;;;5092529;28;20331;-61
2023/03/01 08:10:29;;;;;;;;;;;19.10;39.50;;;;;;5085636;28;20285;-59
2023/03/01 08:12:57;;;;;;;;;;;19.10;39.50;;;;;;5090921;28;19920;-59
2023/03/01 08:15:24;;;;;;;;;;;19.10;38.90;;;;;;5110280;27;19965;-59
2023/03/01 08:17:51;;;;;;;;;;;19.10;38.20;;;;;;5107416;27;20331;-59
2023/03/01 08:20:18;;;;;;;;;;;19.10;37.70;;;;;;5110211;28;19962;-59
2023/03/01 08:22:45;;;;;;;;;;;19.10;37.40;;;;;;5091089;28;19932;-59
2023/03/01 08:25:11;;;;;;;;;;;19.10;37.10;;;;;;5086133;28;19927;-58
2023/03/01 08:27:38;;;;;;;;;;;19.10;36.90;;;;;;5107713;28;19932;-60
2023/03/01 08:30:08;;;;;;;;;;;19.00;36.70;;;;;;5101447;28;20258;-60
2023/03/01 08:32:36;;;;;;;;;;;19.00;36.50;;;;;;5091399;28;19927;-59
2023/03/01 08:35:03;;;;;;;;;;;19.00;36.40;;;;;;5086929;28;19920;-59
2023/03/01 08:37:32;;;;;;;;;;;19.00;36.20;;;;;;5087498;28;19919;-59
2023/03/01 08:39:59;;;;;;;;;;;19.00;36.10;;;;;;5088578;28;19932;-59
2023/03/01 08:42:26;;;;;;;;;;;19.00;36.00;;;;;;5091519;28;19924;-59
2023/03/01 08:44:53;;;;;;;;;;;19.00;35.90;;;;;;5086947;28;19924;-60
2023/03/01 08:47:22;;;;;;;;;;;18.90;35.80;;;;;;5110657;28;19927;-60
2023/03/01 08:49:49;;;;;;;;;;;18.90;35.70;;;;;;5069125;28;20011;-58
2023/03/01 08:52:16;;;;;;;;;;;18.90;35.70;;;;;;5086461;28;19919;-59
2023/03/01 08:54:43;;;;;;;;;;;18.90;35.60;;;;;;5091202;28;19928;-60
2023/03/01 08:57:10;;;;;;;;;;;18.90;35.60;;;;;;5088994;28;19926;-61
2023/03/01 08:59:37;;;;;;;;;;;18.90;35.60;;;;;;5087232;28;19928;-60
2023/03/01 09:02:04;;;;;;;;;;;18.90;35.60;;;;;;5091789;28;19920;-60
2023/03/01 09:04:33;;;;;;;;;;;18.90;35.50;;;;;;5088644;28;20433;-60
2023/03/01 09:06:59;;;;;;;;;;;18.90;35.50;;;;;;5089106;28;19985;-61
2023/03/01 09:09:26;;;;;;;;;;;18.90;35.50;;;;;;5083715;28;19953;-60
2023/03/01 09:11:53;;;;;;;;;;;18.80;35.40;;;;;;5090587;28;20000;-60
2023/03/01 09:14:20;;;;;;;;;;;18.80;35.30;;;;;;5104333;28;19932;-59
2023/03/01 09:16:46;;;;;;;;;;;18.80;35.30;;;;;;5089187;28;19945;-59
2023/03/01 09:19:13;;;;;;;;;;;18.80;35.30;;;;;;5088256;28;19919;-59
2023/03/01 09:21:47;;;;;;;;;;;18.80;35.30;;;;;;5088002;28;19931;-60
2023/03/01 09:24:14;;;;;;;;;;;18.80;35.30;;;;;;5105372;28;19920;-60
2023/03/01 09:26:41;;;;;;;;;;;18.80;35.40;;;;;;5108985;28;19920;-59
2023/03/01 09:29:09;;;;;;;;;;;18.80;35.40;;;;;;5106481;28;20355;-60
2023/03/01 09:31:36;;;;;;;;;;;18.80;35.40;;;;;;5090392;28;20004;-60
2023/03/01 09:34:03;;;;;;;;;;;18.80;35.50;;;;;;5107836;28;19924;-59
2023/03/01 09:36:29;;;;;;;;;;;18.80;35.50;;;;;;5091825;28;20312;-60
2023/03/01 09:38:58;;;;;;;;;;;18.80;35.50;;;;;;5091496;28;19931;-61
2023/03/01 09:41:45;;;;;;;;;;;18.80;35.70;;;;;;5084659;28;19977;-60
2023/03/01 09:44:14;;;;;;;;;;;18.80;35.60;;;;;;5086508;28;19924;-60
2023/03/01 09:46:42;;;;;;;;;;;18.80;35.50;;;;;;5084928;28;20334;-60
2023/03/01 09:49:10;;;;;;;;;;;18.80;35.40;;;;;;5108969;28;19920;-59
2023/03/01 09:51:37;;;;;;;;;;;18.80;35.30;;;;;;5109435;28;19933;-60
2023/03/01 09:54:08;;;;;;;;;;;18.80;35.30;;;;;;5117043;27;19981;-60
2023/03/01 09:56:35;;;;;;;;;;;18.80;35.30;;;;;;5088465;28;19963;-61
2023/03/01 09:59:04;;;;;;;;;;;18.70;35.30;;;;;;5091278;28;19920;-60
2023/03/01 10:01:34;;;;;;;;;;;18.70;35.40;;;;;;5088881;28;19919;-58
2023/03/01 10:04:03;;;;;;;;;;;18.70;35.30;;;;;;5084593;28;19930;-58
2023/03/01 10:06:30;;;;;;;;;;;18.70;35.30;;;;;;5085581;28;19920;-58
2023/03/01 10:08:57;;;;;;;;;;;18.70;35.40;;;;;;5088452;28;19924;-59
2023/03/01 10:11:26;;;;;;;;;;;18.70;35.40;;;;;;5085913;28;19924;-59
2023/03/01 10:13:55;;;;;;;;;;;18.70;35.40;;;;;;5085493;28;19928;-58
2023/03/01 10:16:23;;;;;;;;;;;18.70;35.50;;;;;;5103011;28;20346;-59
2023/03/01 10:18:56;;;;;;;;;;;18.70;35.50;;;;;;5121885;27;19928;-58
2023/03/01 10:21:24;;;;;;;;;;;18.70;35.60;;;;;;5085835;28;19959;-60
2023/03/01 10:23:51;;;;;;;;;;;18.70;35.60;;;;;;5087635;28;19927;-59
2023/03/01 10:26:24;;;;;;;;;;;18.70;35.70;;;;;;5085034;28;19920;-59
2023/03/01 10:28:54;;;;;;;;;;;18.70;35.70;;;;;;5104812;28;19973;-58
2023/03/01 10:31:21;;;;;;;;;;;18.70;35.80;;;;;;5105429;28;19920;-57
2023/03/01 10:33:53;;;;;;;;;;;18.70;35.80;;;;;;5108516;28;19926;-60
2023/03/01 10:36:19;;;;;;;;;;;18.70;35.90;;;;;;5089182;28;19924;-56
2023/03/01 10:38:52;;;;;;;;;;;18.70;35.90;;;;;;5106611;28;19919;-59
2023/03/01 10:41:18;;;;;;;;;;;18.70;36.00;;;;;;5086248;28;20022;-59
2023/03/01 10:43:46;;;;;;;;;;;18.70;36.00;;;;;;5084162;28;19965;-57
2023/03/01 10:46:27;;;;;;;;;;;18.70;36.10;;;;;;5102829;28;19969;-57
2023/03/01 10:49:06;;;;;;;;;;;18.70;36.10;;;;;;5099276;28;19924;-59
2023/03/01 10:51:33;;;;;;;;;;;18.70;36.10;;;;;;5086824;28;20271;-58
2023/03/01 10:53:59;;;;;;;;;;;18.70;36.10;;;;;;5087724;28;19920;-54
2023/03/01 10:56:26;;;;;;;;;;;18.70;36.10;;;;;;5082527;28;19924;-58
2023/03/01 10:58:59;;;;;;;;;;;18.70;36.10;;;;;;5106103;28;19924;-58
2023/03/01 11:01:28;;;;;;;;;;;18.70;36.10;;;;;;5083736;28;19920;-56
2023/03/01 11:04:04;;;;;;;;;;;18.70;36.20;;;;;;5089711;28;19920;-57
2023/03/01 11:06:30;;;;;;;;;;;18.70;36.30;;;;;;5082688;28;19939;-58
2023/03/01 11:08:57;;;;;;;;;;;18.70;36.30;;;;;;5084920;28;20225;-58
2023/03/01 11:11:25;;;;;;;;;;;18.70;36.90;;;;;;5087748;28;20288;-56
2023/03/01 11:13:53;;;;;;;;;;;18.70;36.30;;;;;;5087875;28;19920;-59
2023/03/01 11:16:23;;;;;;;;;;;18.70;36.40;;;;;;5086272;28;19928;-58
2023/03/01 11:18:58;;;;;;;;;;;18.70;36.30;;;;;;5104017;28;19927;-59
2023/03/01 11:21:25;;;;;;;;;;;18.70;36.20;;;;;;5090587;28;19927;-59
2023/03/01 11:23:52;;;;;;;;;;;18.70;36.10;;;;;;5091212;28;19924;-59
2023/03/01 11:26:18;;;;;;;;;;;18.70;36.10;;;;;;5109619;28;19920;-62
2023/03/01 11:28:45;;;;;;;;;;;18.70;36.10;;;;;;5089751;28;19976;-62
2023/03/01 11:31:12;;;;;;;;;;;18.70;36.40;;;;;;5093833;28;19920;-62
2023/03/01 11:33:40;;;;;;;;;;;18.70;36.50;;;;;;5111795;28;20046;-61
2023/03/01 11:36:09;;;;;;;;;;;18.70;36.60;;;;;;5111741;28;19920;-62
2023/03/01 11:38:36;;;;;;;;;;;18.70;36.70;;;;;;5093108;28;20037;-63
2023/03/01 11:41:07;;;;;;;;;;;18.70;36.80;;;;;;5093850;28;19927;-63
2023/03/01 11:43:35;;;;;;;;;;;18.80;37.00;;;;;;5084898;28;19924;-63
2023/03/01 11:46:19;;;;;;;;;;;18.80;37.00;;;;;;5084981;28;19920;-63
2023/03/01 11:48:48;;;;;;;;;;;18.80;37.20;;;;;;5092498;28;19920;-63
2023/03/01 11:51:18;;;;;;;;;;;18.80;37.20;;;;;;5089380;28;19932;-63
2023/03/01 11:53:53;;;;;;;;;;;18.80;37.40;;;;;;5087442;28;19927;-63
2023/03/01 11:56:23;;;;;;;;;;;18.80;37.40;;;;;;5109010;28;19920;-63
2023/03/01 11:59:04;;;;;;;;;;;18.80;37.60;;;;;;5110553;28;19919;-63
2023/03/01 12:01:36;;;;;;;;;;;18.80;37.70;;;;;;5092180;28;19968;-63
2023/03/01 12:04:07;;;;;;;;;;;18.90;37.90;;;;;;5079911;28;20272;-63
2023/03/01 12:06:41;;;;;;;;;;;18.90;38.00;;;;;;5086374;28;19945;-62
2023/03/01 12:09:23;;;;;;;;;;;18.90;38.10;;;;;;5086684;28;19930;-62
2023/03/01 12:12:00;;;;;;;;;;;18.90;38.00;;;;;;5070826;28;19924;-59
2023/03/01 12:14:31;;;;;;;;;;;18.90;37.70;;;;;;5082963;28;19920;-59
2023/03/01 12:17:01;;;;;;;;;;;18.90;37.50;;;;;;5090588;28;19948;-59
2023/03/01 12:19:32;;;;;;;;;;;18.90;37.50;;;;;;5073579;28;20377;-57
2023/03/01 12:22:13;;;;;;;;;;;18.90;37.50;;;;;;5077814;28;19924;-59
2023/03/01 12:24:57;;;;;;;;;;;18.90;37.50;;;;;;5093194;28;19924;-59
2023/03/01 12:27:31;;;;;;;;;;;18.90;37.50;;;;;;5090719;28;19923;-58
2023/03/01 12:30:00;;;;;;;;;;;18.90;37.50;;;;;;5107326;28;19923;-60
2023/03/01 12:32:29;;;;;;;;;;;18.90;37.50;;;;;;5090295;28;19919;-60
2023/03/01 12:35:06;;;;;;;;;;;18.90;37.50;;;;;;5112037;28;19919;-59
2023/03/01 12:37:35;;;;;;;;;;;18.90;37.50;;;;;;5093339;28;19935;-59
2023/03/01 12:40:12;;;;;;;;;;;18.90;37.40;;;;;;5110269;28;19920;-59
2023/03/01 12:42:40;;;;;;;;;;;18.90;37.40;;;;;;5091108;28;19993;-59
2023/03/01 12:45:19;;;;;;;;;;;18.90;37.40;;;;;;5111235;28;19928;-61
2023/03/01 12:47:52;;;;;;;;;;;18.90;37.50;;;;;;5111335;28;19919;-60
2023/03/01 12:50:20;;;;;;;;;;;18.90;37.50;;;;;;5110982;28;19926;-60
2023/03/01 12:52:47;;;;;;;;;;;18.90;38.20;;;;;;5110354;28;19920;-60
2023/03/01 12:55:20;;;;;;;;;;;18.90;37.50;;;;;;5111388;28;19928;-60
2023/03/01 12:57:47;;;;;;;;;;;18.90;37.50;;;;;;5091335;28;19931;-58
2023/03/01 13:00:19;;;;;;;;;;;18.90;37.50;;;;;;5092458;28;19927;-59
2023/03/01 13:02:46;;;;;;;;;;;18.90;37.50;;;;;;5076318;28;19920;-59
2023/03/01 13:05:20;;;;;;;;;;;18.90;37.50;;;;;;5092761;28;19919;-58
2023/03/01 13:07:50;;;;;;;;;;;18.90;37.50;;;;;;5082341;28;19923;-60
2023/03/01 13:10:20;;;;;;;;;;;18.90;37.60;;;;;;5088426;28;19932;-55
2023/03/01 13:12:51;;;;;;;;;;;18.90;37.60;;;;;;5090573;28;19924;-58
2023/03/01 13:15:28;;;;;;;;;;;18.90;37.60;;;;;;5087895;28;19931;-56
2023/03/01 13:17:55;;;;;;;;;;;18.90;37.60;;;;;;5091749;28;19928;-60
2023/03/01 13:20:22;;;;;;;;;;;18.90;37.60;;;;;;5084998;28;19977;-58
2023/03/01 13:23:02;;;;;;;;;;;18.90;37.60;;;;;;5109419;28;19927;-59
2023/03/01 13:25:30;;;;;;;;;;;18.90;38.20;;;;;;5086700;28;19919;-60
2023/03/01 13:28:12;;;;;;;;;;;18.90;37.60;;;;;;5085986;28;20392;-59
2023/03/01 13:30:39;;;;;;;;;;;18.90;37.70;;;;;;5106128;28;19924;-59
2023/03/01 13:33:34;;;;;;;;;;;18.90;37.70;;;;;;5091811;28;19932;-59
2023/03/01 13:36:00;;;;;;;;;;;18.90;37.70;;;;;;5085081;28;19951;-59
2023/03/01 13:38:38;;;;;;;;;;;18.90;37.70;;;;;;5083700;28;20312;-59
2023/03/01 13:41:06;;;;;;;;;;;18.90;37.70;;;;;;5085942;28;19924;-59
2023/03/01 13:43:34;;;;;;;;;;;18.90;37.70;;;;;;5085339;28;19967;-59
2023/03/01 13:46:00;;;;;;;;;;;18.90;37.80;;;;;;5089786;28;19923;-59
2023/03/01 13:48:28;;;;;;;;;;;18.90;37.70;;;;;;5089215;28;19969;-59
2023/03/01 13:50:56;;;;;;;;;;;18.90;37.70;;;;;;5086404;28;19927;-60
2023/03/01 13:53:23;;;;;;;;;;;18.90;37.70;;;;;;5086330;28;19926;-59
2023/03/01 13:55:51;;;;;;;;;;;18.90;37.70;;;;;;5086061;28;19923;-59
2023/03/01 13:58:24;;;;;;;;;;;18.90;37.70;;;;;;5088166;28;20357;-59
2023/03/01 14:01:01;;;;;;;;;;;19.00;37.90;;;;;;5105423;28;19927;-57
2023/03/01 14:03:27;;;;;;;;;;;18.90;37.80;;;;;;5085160;28;19920;-59
2023/03/01 14:06:06;;;;;;;;;;;19.00;38.00;;;;;;5085304;28;20260;-58
2023/03/01 14:08:33;;;;;;;;;;;18.90;37.80;;;;;;5116761;27;19924;-56
2023/03/01 14:11:18;;;;;;;;;;;19.00;37.90;;;;;;5086529;28;20384;-59
2023/03/01 14:13:57;;;;;;;;;;;19.00;37.90;;;;;;5102865;28;22486;-60
2023/03/01 14:16:28;;;;;;;;;;;18.90;37.80;;;;;;5088027;28;19957;-59
2023/03/01 14:18:56;;;;;;;;;;;19.00;37.90;;;;;;5084686;28;19955;-59
2023/03/01 14:21:25;;;;;;;;;;;19.00;38.00;;;;;;5103935;28;19924;-60
2023/03/01 14:23:52;;;;;;;;;;;19.00;38.00;;;;;;5103181;28;19927;-58